Litchfield, MN

9:28 PM CDT on August 19, 2017 (GMT -0500)
Litchfield Municipal

Weather History for KLJF - April, 2013

Change the Weather History Date:

Sunday, April 21, 2013

  Actual Average Record
Temperature  
Mean Temperature 39 °F -  
Max Temperature 48 °F 60 °F 93 °F (1980)
Min Temperature 30 °F 36 °F 24 °F (1966)
Degree Days  
Heating Degree Days 26    
Moisture  
Dew Point 37 °F    
Average Humidity 93    
Maximum Humidity 100    
Minimum Humidity 76    
Precipitation  
Precipitation 0.00 in - - ()
Sea Level Pressure  
Sea Level Pressure 30.12 in    
Wind  
Wind Speed 11 mph (SSE)    
Max Wind Speed 18 mph    
Max Gust Speed 26 mph    
Visibility 8 miles    
Events Rain , Snow    
Averages and records for this station are not official NWS values.
T = Trace of Precipitation, MM = Missing Value Source: NWS Daily Summary

Daily Weather History Graph

Daily Weather History Graph

Search for Another Location

Airport or City:

Trip Planner

Search our weather history database for the weather conditions in past years. The results will help you decide how hot, cold, wet, or windy it might be!

Date:

Astronomy

Apr. 21, 2013 Rise Set
Actual Time 6:22 AM CDT 8:11 PM CDT
Civil Twilight 5:51 AM CDT 8:43 PM CDT
Nautical Twilight 5:12 AM CDT 9:21 PM CDT
Astronomical Twilight 4:31 AM CDT 10:03 PM CDT
Moon 3:47 PM CDT (4/21) 3:57 AM CDT (4/21)
Length of Visible Light 14h 51m
Length of Day
13h 49m
Waxing Gibbous, 80% of the Moon is Illuminated
Apr 21
Waxing Gibbous
Apr 25
Full
May 2
Last Quarter
May 9
New
May 17
First Quarter

Hourly Weather History & Observations

Time (CDT) Temp. Windchill Dew Point Humidity Pressure Visibility Wind Dir Wind Speed Gust Speed Precip Events Conditions
12:13 AM 30.2 °F 24.3 °F 28.4 °F 93% 30.28 in 2.5 mi SE 5.8 mph - N/A Snow Light Snow
12:32 AM 30.2 °F 23.4 °F 30.2 °F 100% 30.28 in 3.0 mi SE 6.9 mph - N/A Snow Light Snow
12:53 AM 30.2 °F 23.4 °F 30.2 °F 100% 30.28 in 1.5 mi SE 6.9 mph - N/A Snow Light Snow
1:13 AM 30.2 °F 22.6 °F 30.2 °F 100% 30.27 in 2.5 mi ESE 8.1 mph - N/A Snow Light Snow
1:32 AM 30.2 °F 21.9 °F 30.2 °F 100% 30.26 in 3.0 mi ESE 9.2 mph - N/A Snow Light Snow
1:53 AM 32.0 °F 23.0 °F 32.0 °F 100% 30.25 in 3.0 mi SE 11.5 mph - N/A Snow Light Snow
2:13 AM 32.0 °F 23.6 °F 32.0 °F 100% 30.25 in 5.0 mi ESE 10.4 mph - N/A   Overcast
2:32 AM 32.0 °F 23.6 °F 32.0 °F 100% 30.24 in 4.0 mi ESE 10.4 mph - N/A Snow Light Snow
2:53 AM 33.8 °F 25.3 °F 33.8 °F 100% 30.23 in 5.0 mi ESE 11.5 mph - N/A Snow Light Snow
3:13 AM 33.8 °F 25.8 °F 33.8 °F 100% 30.22 in 5.0 mi ESE 10.4 mph - N/A Snow Light Snow
3:32 AM 33.8 °F 25.8 °F 33.8 °F 100% 30.22 in 7.0 mi ESE 10.4 mph - N/A   Overcast
3:53 AM 33.8 °F 25.3 °F 33.8 °F 100% 30.21 in 7.0 mi ESE 11.5 mph - N/A   Overcast
4:13 AM 33.8 °F 24.3 °F 33.8 °F 100% 30.21 in 10.0 mi ESE 13.8 mph - N/A   Overcast
4:33 AM 33.8 °F 24.8 °F 33.8 °F 100% 30.21 in 10.0 mi ESE 12.7 mph - N/A   Overcast
4:53 AM 33.8 °F 24.3 °F 33.8 °F 100% 30.20 in 10.0 mi ESE 13.8 mph - N/A   Overcast
5:12 AM 33.8 °F 24.3 °F 33.8 °F 100% 30.20 in 10.0 mi ESE 13.8 mph 18.4 mph N/A   Overcast
5:33 AM 33.8 °F 23.9 °F 33.8 °F 100% 30.19 in 10.0 mi SE 15.0 mph 19.6 mph N/A   Overcast
5:53 AM 33.8 °F 23.2 °F 33.8 °F 100% 30.19 in 10.0 mi SE 17.3 mph - N/A   Overcast
6:12 AM 33.8 °F 23.9 °F 33.8 °F 100% 30.19 in 10.0 mi SE 15.0 mph - N/A   Overcast
6:33 AM 35.6 °F 25.5 °F 33.8 °F 93% 30.18 in 10.0 mi SE 17.3 mph 21.9 mph N/A   Overcast
6:53 AM 35.6 °F 26.2 °F 33.8 °F 93% 30.18 in 10.0 mi SE 15.0 mph - N/A   Overcast
7:12 AM 35.6 °F 25.2 °F 33.8 °F 93% 30.17 in 10.0 mi SE 18.4 mph - N/A   Overcast
7:33 AM 35.6 °F 26.2 °F 33.8 °F 93% 30.17 in 10.0 mi SE 15.0 mph 24.2 mph N/A   Overcast
7:53 AM 35.6 °F 25.2 °F 33.8 °F 93% 30.16 in 10.0 mi SE 18.4 mph - N/A   Overcast
8:12 AM 35.6 °F 25.5 °F 33.8 °F 93% 30.16 in 10.0 mi SE 17.3 mph 21.9 mph N/A   Mostly Cloudy
8:33 AM 35.6 °F 26.6 °F 33.8 °F 93% 30.15 in 10.0 mi SE 13.8 mph 20.7 mph N/A   Mostly Cloudy
8:53 AM 37.4 °F 28.9 °F 33.8 °F 87% 30.14 in 10.0 mi SE 13.8 mph 23.0 mph N/A   Mostly Cloudy
9:13 AM 37.4 °F 28.9 °F 33.8 °F 87% 30.14 in 10.0 mi SE 13.8 mph 20.7 mph N/A   Mostly Cloudy
9:33 AM 37.4 °F 28.9 °F 35.6 °F 93% 30.14 in 10.0 mi SE 13.8 mph 21.9 mph N/A   Scattered Clouds
9:52 AM 39.2 °F 30.5 °F 35.6 °F 87% 30.13 in 10.0 mi SE 16.1 mph 24.2 mph N/A   Clear
10:13 AM 39.2 °F 30.5 °F 35.6 °F 87% 30.12 in 10.0 mi SE 16.1 mph 23.0 mph N/A   Clear
10:32 AM 39.2 °F 30.8 °F 35.6 °F 87% 30.12 in 10.0 mi SE 15.0 mph 23.0 mph N/A   Clear
10:53 AM 41.0 °F 33.9 °F 35.6 °F 81% 30.11 in 10.0 mi SE 12.7 mph 26.5 mph N/A   Clear
11:13 AM 42.8 °F 35.1 °F 35.6 °F 76% 30.10 in 10.0 mi SE 16.1 mph 23.0 mph N/A   Clear
11:32 AM 42.8 °F 35.1 °F 35.6 °F 76% 30.10 in 10.0 mi SSE 16.1 mph 25.3 mph N/A   Clear
11:53 AM 42.8 °F 35.4 °F 35.6 °F 76% 30.08 in 10.0 mi SSE 15.0 mph 24.2 mph N/A   Clear
12:13 PM 42.8 °F 36.2 °F 37.4 °F 81% 30.08 in 10.0 mi SSE 12.7 mph 21.9 mph N/A   Clear
12:32 PM 44.6 °F 38.4 °F 37.4 °F 76% 30.07 in 10.0 mi SSE 12.7 mph 21.9 mph N/A   Clear
12:53 PM 44.6 °F 38.4 °F 37.4 °F 76% 30.06 in 10.0 mi SSE 12.7 mph 19.6 mph N/A   Clear
1:13 PM 44.6 °F 38.4 °F 39.2 °F 81% 30.05 in 10.0 mi SSE 12.7 mph 19.6 mph N/A   Clear
1:32 PM 46.4 °F 41.9 °F 39.2 °F 76% 30.04 in 10.0 mi SSE 9.2 mph 19.6 mph N/A   Scattered Clouds
1:53 PM 46.4 °F 42.4 °F 39.2 °F 76% 30.03 in 10.0 mi SSE 8.1 mph 23.0 mph N/A   Mostly Cloudy
2:13 PM 46.4 °F 41.1 °F 41.0 °F 81% 30.02 in 10.0 mi SSE 11.5 mph 19.6 mph N/A   Scattered Clouds
2:32 PM 48.2 °F - 41.0 °F 76% 30.02 in 10.0 mi SSE 10.4 mph 17.3 mph N/A   Scattered Clouds
2:53 PM 46.4 °F 42.4 °F 41.0 °F 81% 30.02 in 10.0 mi SSE 8.1 mph - N/A   Mostly Cloudy
3:13 PM 46.4 °F 42.9 °F 42.8 °F 87% 30.01 in 7.0 mi SSE 6.9 mph - N/A Rain Light Rain
3:32 PM 44.6 °F 40.7 °F 42.8 °F 93% 30.01 in 7.0 mi SSE 6.9 mph - N/A   Drizzle
3:53 PM 44.6 °F 42.2 °F 44.6 °F 100% 30.00 in 4.0 mi SSE 4.6 mph - N/A Rain Light Rain
4:13 PM 44.6 °F - 44.6 °F 100% 30.00 in 2.5 mi Calm Calm - N/A Rain Rain
4:32 PM 44.6 °F 43.1 °F 44.6 °F 100% 30.00 in 1.8 mi SSW 3.5 mph - N/A Rain Rain
4:53 PM 44.6 °F 42.2 °F 44.6 °F 100% 30.00 in 2.0 mi SSW 4.6 mph - N/A Rain Rain
5:12 PM 44.6 °F - 44.6 °F 100% 30.00 in 2.5 mi Calm Calm - N/A Rain Rain
5:33 PM 46.4 °F 44.3 °F 46.4 °F 100% 30.00 in 2.0 mi SSW 4.6 mph - N/A Rain Light Rain
5:53 PM 46.4 °F 42.4 °F 46.4 °F 100% 30.01 in 5.0 mi SW 8.1 mph - N/A   Overcast
6:12 PM 44.6 °F 39.7 °F 44.6 °F 100% 30.01 in 7.0 mi West 9.2 mph - N/A   Overcast
6:33 PM 44.6 °F 40.2 °F 42.8 °F 93% 30.01 in 10.0 mi West 8.1 mph - N/A   Overcast
6:53 PM 42.8 °F 38.6 °F 42.8 °F 100% 30.02 in 10.0 mi West 6.9 mph 16.1 mph N/A   Overcast
7:13 PM 42.8 °F 37.5 °F 41.0 °F 93% 30.03 in 10.0 mi West 9.2 mph - N/A   Overcast
7:33 PM 41.0 °F 34.7 °F 39.2 °F 93% 30.04 in 10.0 mi West 10.4 mph 18.4 mph N/A   Overcast
7:53 PM 41.0 °F 34.3 °F 39.2 °F 93% 30.05 in 10.0 mi WNW 11.5 mph 16.1 mph N/A   Overcast
8:12 PM 41.0 °F 34.7 °F 39.2 °F 93% 30.06 in 10.0 mi WNW 10.4 mph 16.1 mph N/A   Overcast
8:33 PM 39.2 °F 33.6 °F 39.2 °F 100% 30.07 in 10.0 mi WNW 8.1 mph - N/A   Overcast
8:53 PM 39.2 °F 33.6 °F 39.2 °F 100% 30.08 in 10.0 mi WNW 8.1 mph - N/A   Overcast
9:12 PM 39.2 °F 33.6 °F 37.4 °F 93% 30.09 in 10.0 mi WNW 8.1 mph - N/A   Overcast
9:33 PM 39.2 °F 32.5 °F 37.4 °F 93% 30.11 in 10.0 mi WNW 10.4 mph - N/A   Overcast
9:53 PM 39.2 °F 30.5 °F 37.4 °F 93% 30.12 in 10.0 mi WNW 16.1 mph 19.6 mph N/A   Overcast
10:12 PM 37.4 °F 29.8 °F 35.6 °F 93% 30.13 in 10.0 mi WNW 11.5 mph 18.4 mph N/A   Overcast
10:33 PM 37.4 °F 29.8 °F 35.6 °F 93% 30.13 in 10.0 mi NW 11.5 mph - N/A   Overcast
10:52 PM 37.4 °F 29.8 °F 35.6 °F 93% 30.14 in 10.0 mi NW 11.5 mph 18.4 mph N/A   Overcast
11:13 PM 37.4 °F 30.8 °F 35.6 °F 93% 30.14 in 10.0 mi NW 9.2 mph - N/A   Overcast
11:32 PM 37.4 °F 31.4 °F 35.6 °F 93% 30.14 in 10.0 mi NW 8.1 mph - N/A   Overcast
11:53 PM 37.4 °F 28.5 °F 35.6 °F 93% 30.14 in 10.0 mi NW 15.0 mph 19.6 mph N/A   Overcast